Time;durP1;ratioP1;P1;durP2;ratioP2;P2;SDS_P1;SDS_P2;PMS_P1;PMS_P2;Temp;Humidity;BMP_temperature;BMP_pressure;BME280_temperature;BME280_humidity;BME280_pressure;Samples;Min_cycle;Max_cycle;Signal;HPM_P1;HPM_P2
2023/04/28 00:00:07;;;;;;;;;;;;;;;;;;1047208;28;3954;-46
2023/04/28 00:00:58;;;;;;;;;;;;;;;;;;1047309;28;1674;-44
2023/04/28 00:01:28;;;;;;;;;;;;;;;;;;1045372;28;3839;-46
2023/04/28 00:01:58;;;;;;;;;;;;;;;;;;1045824;28;3077;-44
2023/04/28 00:02:28;;;;;;;;;;;;;;;;;;1042257;28;3832;-48
2023/04/28 00:02:59;;;;;;;;;;;;;;;;;;1044911;28;3066;-45
2023/04/28 00:03:29;;;;;;;;;;;;;;;;;;1043584;28;4076;-46
2023/04/28 00:04:00;;;;;;;;;;;;;;;;;;1044826;28;3052;-52
2023/04/28 00:04:30;;;;;;;;;;;;;;;;;;1045125;28;3900;-46
2023/04/28 00:05:00;;;;;;;;;;;;;;;;;;1046635;28;2929;-50
2023/04/28 00:05:31;;;;;;;;;;;;;;;;;;1045438;28;3715;-48
2023/04/28 00:06:01;;;;;;;;;;;;;;;;;;1046096;28;3093;-48
2023/04/28 00:06:32;;;;;;;;;;;;;;;;;;1045507;28;3817;-45
2023/04/28 00:07:02;;;;;;;;;;;;;;;;;;1044735;28;3414;-49
2023/04/28 00:07:33;;;;;;;;;;;;;;;;;;1045690;28;3844;-50
2023/04/28 00:08:03;;;;;;;;;;;;;;;;;;1046989;28;1773;-48
2023/04/28 00:08:34;;;;;;;;;;;;;;;;;;1047322;28;3908;-47
2023/04/28 00:09:04;;;;;;;;;;;;;;;;;;1045621;28;4072;-46
2023/04/28 00:09:35;;;;;;;;;;;;;;;;;;1044445;28;3344;-46
2023/04/28 00:10:05;;;;;;;;;;;;;;;;;;1044600;28;3992;-53
2023/04/28 00:10:35;;;;;;;;;;;;;;;;;;1044441;28;3071;-48
2023/04/28 00:11:09;;;;;;;;;;;;;;;;;;1045207;28;3978;-48
2023/04/28 00:11:40;;;;;;;;;;;;;;;;;;1045735;28;2952;-47
2023/04/28 00:12:10;;;;;;;;;;;;;;;;;;1043322;28;3801;-45
2023/04/28 00:12:41;;;;;;;;;;;;;;;;;;1041172;28;2917;-45
2023/04/28 00:13:11;;;;;;;;;;;;;;;;;;1040318;28;4077;-46
2023/04/28 00:13:42;;;;;;;;;;;;;;;;;;1042859;28;2665;-45
2023/04/28 00:14:12;;;;;;;;;;;;;;;;;;1042087;28;3895;-49
2023/04/28 00:14:43;;;;;;;;;;;;;;;;;;1043350;28;1603;-49
2023/04/28 00:15:13;;;;;;;;;;;;;;;;;;1040931;28;4166;-52
2023/04/28 00:15:43;;;;;;;;;;;;;;;;;;1041667;28;2968;-49
2023/04/28 00:16:14;;;;;;;;;;;;;;;;;;1040560;28;3886;-49
2023/04/28 00:16:44;;;;;;;;;;;;;;;;;;1039780;28;2779;-47
2023/04/28 00:17:14;;;;;;;;;;;;;;;;;;1040041;28;3967;-49
2023/04/28 00:17:45;;;;;;;;;;;;;;;;;;1040507;28;2062;-47
2023/04/28 00:18:15;;;;;;;;;;;;;;;;;;1042402;28;4048;-48
2023/04/28 00:18:45;;;;;;;;;;;;;;;;;;1041641;28;1934;-46
2023/04/28 00:19:15;;;;;;;;;;;;;;;;;;1040858;28;4304;-47
2023/04/28 00:19:46;;;;;;;;;;;;;;;;;;1042604;28;3045;-46
2023/04/28 00:20:16;;;;;;;;;;;;;;;;;;1042915;28;3784;-47
2023/04/28 00:20:47;;;;;;;;;;;;;;;;;;1041076;28;2959;-50
2023/04/28 00:21:17;;;;;;;;;;;;;;;;;;1041569;28;3849;-47
2023/04/28 00:21:47;;;;;;;;;;;;;;;;;;1041020;28;3109;-46
2023/04/28 00:22:18;;;;;;;;;;;;;;;;;;1042601;28;4043;-46
2023/04/28 00:22:49;;;;;;;;;;;;;;;;;;1042333;28;1800;-48
2023/04/28 00:23:19;;;;;;;;;;;;;;;;;;1042794;28;3936;-46
2023/04/28 00:23:50;;;;;;;;;;;;;;;;;;1042681;28;1880;-45
2023/04/28 00:24:20;;;;;;;;;;;;;;;;;;1041880;28;3896;-46
2023/04/28 00:24:50;;;;;;;;;;;;;;;;;;1042415;28;1957;-50
2023/04/28 00:25:20;;;;;;;;;;;;;;;;;;1042886;28;4045;-46
2023/04/28 00:25:51;;;;;;;;;;;;;;;;;;1042374;28;3551;-45
2023/04/28 00:26:21;;;;;;;;;;;;;;;;;;1041121;28;4052;-48
2023/04/28 00:26:52;;;;;;;;;;;;;;;;;;1043191;28;1631;-48
2023/04/28 00:27:22;;;;;;;;;;;;;;;;;;1039553;28;4167;-47
2023/04/28 00:27:52;;;;;;;;;;;;;;;;;;1041875;28;3106;-44
2023/04/28 00:28:22;;;;;;;;;;;;;;;;;;1042043;28;4238;-48
2023/04/28 00:28:53;;;;;;;;;;;;;;;;;;1043549;28;1789;-47
2023/04/28 00:29:23;;;;;;;;;;;;;;;;;;1041955;28;4219;-46
2023/04/28 00:29:53;;;;;;;;;;;;;;;;;;1043602;28;1648;-45
2023/04/28 00:30:24;;;;;;;;;;;;;;;;;;1040419;28;4247;-46
2023/04/28 00:30:54;;;;;;;;;;;;;;;;;;1041549;28;2846;-48
2023/04/28 00:31:24;;;;;;;;;;;;;;;;;;1042000;28;5317;-47
2023/04/28 00:31:55;;;;;;;;;;;;;;;;;;1043082;28;1656;-44
2023/04/28 00:32:25;;;;;;;;;;;;;;;;;;1042372;28;3903;-47
2023/04/28 00:32:55;;;;;;;;;;;;;;;;;;1043493;28;1910;-49
2023/04/28 00:33:26;;;;;;;;;;;;;;;;;;1042298;28;4058;-47
2023/04/28 00:33:56;;;;;;;;;;;;;;;;;;1043476;28;1695;-45
2023/04/28 00:34:28;;;;;;;;;;;;;;;;;;1042860;28;4060;-47
2023/04/28 00:34:58;;;;;;;;;;;;;;;;;;1040881;28;3168;-47
2023/04/28 00:35:28;;;;;;;;;;;;;;;;;;1041326;28;3913;-49
2023/04/28 00:35:59;;;;;;;;;;;;;;;;;;1041074;28;2968;-47
2023/04/28 00:36:31;;;;;;;;;;;;;;;;;;1040427;28;3900;-47
2023/04/28 00:37:02;;;;;;;;;;;;;;;;;;1041169;28;2693;-50
2023/04/28 00:37:34;;;;;;;;;;;;;;;;;;1040721;28;3834;-51
2023/04/28 00:38:05;;;;;;;;;;;;;;;;;;1042069;28;3890;-45
2023/04/28 00:38:35;;;;;;;;;;;;;;;;;;1043426;28;1604;-47
2023/04/28 00:39:05;;;;;;;;;;;;;;;;;;1041985;28;4197;-49
2023/04/28 00:39:36;;;;;;;;;;;;;;;;;;1042588;28;1698;-47
2023/04/28 00:40:06;;;;;;;;;;;;;;;;;;1040562;28;4133;-48
2023/04/28 00:40:37;;;;;;;;;;;;;;;;;;1043537;28;1730;-46
2023/04/28 00:41:11;;;;;;;;;;;;;;;;;;1040606;28;4018;-47
2023/04/28 00:41:41;;;;;;;;;;;;;;;;;;1043345;28;1762;-46
2023/04/28 00:42:12;;;;;;;;;;;;;;;;;;1042108;28;3856;-43
2023/04/28 00:42:42;;;;;;;;;;;;;;;;;;1043509;28;1759;-48
2023/04/28 00:43:13;;;;;;;;;;;;;;;;;;1041124;28;3979;-48
2023/04/28 00:43:44;;;;;;;;;;;;;;;;;;1039505;28;3157;-46
2023/04/28 00:44:14;;;;;;;;;;;;;;;;;;1041774;28;3765;-44
2023/04/28 00:44:44;;;;;;;;;;;;;;;;;;1043049;28;1769;-46
2023/04/28 00:45:15;;;;;;;;;;;;;;;;;;1040806;28;3766;-50
2023/04/28 00:45:45;;;;;;;;;;;;;;;;;;1041263;28;3249;-45
2023/04/28 00:46:20;;;;;;;;;;;;;;;;;;1040235;28;4219;-47
2023/04/28 00:46:51;;;;;;;;;;;;;;;;;;1041513;28;2161;-48
2023/04/28 00:47:21;;;;;;;;;;;;;;;;;;1038272;28;3940;-49
2023/04/28 00:47:51;;;;;;;;;;;;;;;;;;1042955;28;1434;-46
2023/04/28 00:48:23;;;;;;;;;;;;;;;;;;1042382;28;3787;-49
2023/04/28 00:48:53;;;;;;;;;;;;;;;;;;1042908;28;1791;-45
2023/04/28 00:49:24;;;;;;;;;;;;;;;;;;1042865;28;3949;-45
2023/04/28 00:49:54;;;;;;;;;;;;;;;;;;1042767;28;1915;-51
2023/04/28 00:50:25;;;;;;;;;;;;;;;;;;1042955;28;4084;-49
2023/04/28 00:50:55;;;;;;;;;;;;;;;;;;1042035;28;1837;-46
2023/04/28 00:51:27;;;;;;;;;;;;;;;;;;1042673;28;3935;-47
2023/04/28 00:52:02;;;;;;;;;;;;;;;;;;1042688;28;1820;-47
2023/04/28 00:52:32;;;;;;;;;;;;;;;;;;1040179;28;4180;-46
2023/04/28 00:53:03;;;;;;;;;;;;;;;;;;1042698;28;1984;-46
2023/04/28 00:53:33;;;;;;;;;;;;;;;;;;1042594;28;3936;-49
2023/04/28 00:54:04;;;;;;;;;;;;;;;;;;1042608;28;1701;-46
2023/04/28 00:54:35;;;;;;;;;;;;;;;;;;1046606;28;3722;-47
2023/04/28 00:55:06;;;;;;;;;;;;;;;;;;1046140;28;3924;-44
2023/04/28 00:55:37;;;;;;;;;;;;;;;;;;1047165;28;1593;-49
2023/04/28 00:56:07;;;;;;;;;;;;;;;;;;1044736;28;4620;-48
2023/04/28 00:56:38;;;;;;;;;;;;;;;;;;1046910;28;1685;-46
2023/04/28 00:57:08;;;;;;;;;;;;;;;;;;1045131;28;4584;-49
2023/04/28 00:57:39;;;;;;;;;;;;;;;;;;1047120;28;1611;-46
2023/04/28 00:58:10;;;;;;;;;;;;;;;;;;1044500;28;3812;-48
2023/04/28 00:58:40;;;;;;;;;;;;;;;;;;1047000;28;1669;-44
2023/04/28 00:59:11;;;;;;;;;;;;;;;;;;1046227;28;4024;-48
2023/04/28 00:59:41;;;;;;;;;;;;;;;;;;1047110;28;1744;-44
2023/04/28 01:00:11;;;;;;;;;;;;;;;;;;1046763;28;4073;-50
2023/04/28 01:00:42;;;;;;;;;;;;;;;;;;1045347;28;3077;-48
2023/04/28 01:01:12;;;;;;;;;;;;;;;;;;1046347;28;3869;-49
2023/04/28 01:01:42;;;;;;;;;;;;;;;;;;1046768;28;1707;-49
2023/04/28 01:02:17;;;;;;;;;;;;;;;;;;1046895;28;3917;-50
2023/04/28 01:02:47;;;;;;;;;;;;;;;;;;1043972;28;2964;-46
2023/04/28 01:03:17;;;;;;;;;;;;;;;;;;1045903;28;4041;-44
2023/04/28 01:03:48;;;;;;;;;;;;;;;;;;1046522;28;1995;-46
2023/04/28 01:04:19;;;;;;;;;;;;;;;;;;1046504;28;3781;-49
2023/04/28 01:04:50;;;;;;;;;;;;;;;;;;1046044;28;3006;-47
2023/04/28 01:05:20;;;;;;;;;;;;;;;;;;1045342;28;4011;-46
2023/04/28 01:05:50;;;;;;;;;;;;;;;;;;1046573;28;2024;-44
2023/04/28 01:06:21;;;;;;;;;;;;;;;;;;1046340;28;4260;-47
2023/04/28 01:06:52;;;;;;;;;;;;;;;;;;1046184;28;2007;-46
2023/04/28 01:07:22;;;;;;;;;;;;;;;;;;1046700;28;3923;-45
2023/04/28 01:07:53;;;;;;;;;;;;;;;;;;1045314;28;3018;-49
2023/04/28 01:08:26;;;;;;;;;;;;;;;;;;1047023;28;3779;-50
2023/04/28 01:08:57;;;;;;;;;;;;;;;;;;1045661;28;2461;-48
2023/04/28 01:09:27;;;;;;;;;;;;;;;;;;1047006;28;3963;-45
2023/04/28 01:09:57;;;;;;;;;;;;;;;;;;1047256;28;1647;-47
2023/04/28 01:10:28;;;;;;;;;;;;;;;;;;1046209;28;3711;-45
2023/04/28 01:10:58;;;;;;;;;;;;;;;;;;1046835;28;1677;-49
2023/04/28 01:11:28;;;;;;;;;;;;;;;;;;1046170;28;3883;-45
2023/04/28 01:11:59;;;;;;;;;;;;;;;;;;1047678;28;1680;-46
2023/04/28 01:12:29;;;;;;;;;;;;;;;;;;1044772;28;3828;-50
2023/04/28 01:13:00;;;;;;;;;;;;;;;;;;1046073;28;3264;-49
2023/04/28 01:13:30;;;;;;;;;;;;;;;;;;1046429;28;3975;-46
2023/04/28 01:14:00;;;;;;;;;;;;;;;;;;1047042;28;2350;-47
2023/04/28 01:14:32;;;;;;;;;;;;;;;;;;1046040;28;3699;-50
2023/04/28 01:15:02;;;;;;;;;;;;;;;;;;1044603;28;2991;-45
2023/04/28 01:15:33;;;;;;;;;;;;;;;;;;1044224;28;3683;-49
2023/04/28 01:16:03;;;;;;;;;;;;;;;;;;1046300;28;2893;-48
2023/04/28 01:16:34;;;;;;;;;;;;;;;;;;1042122;28;3946;-46
2023/04/28 01:17:04;;;;;;;;;;;;;;;;;;1044923;28;4443;-45
2023/04/28 01:17:35;;;;;;;;;;;;;;;;;;1046843;28;3283;-44
2023/04/28 01:18:05;;;;;;;;;;;;;;;;;;1046384;28;4241;-49
2023/04/28 01:18:35;;;;;;;;;;;;;;;;;;1047011;28;1841;-47
2023/04/28 01:19:16;;;;;;;;;;;;;;;;;;1045079;28;3978;-45
2023/04/28 01:19:46;;;;;;;;;;;;;;;;;;1046727;28;1696;-45
2023/04/28 01:20:16;;;;;;;;;;;;;;;;;;1046273;28;4047;-45
2023/04/28 01:20:47;;;;;;;;;;;;;;;;;;1047672;28;1762;-44
2023/04/28 01:21:31;;;;;;;;;;;;;;;;;;1046350;28;3870;-49
2023/04/28 01:22:01;;;;;;;;;;;;;;;;;;1046292;28;3156;-46
2023/04/28 01:22:31;;;;;;;;;;;;;;;;;;1045825;28;3858;-44
2023/04/28 01:23:02;;;;;;;;;;;;;;;;;;1046098;28;2920;-47
2023/04/28 01:23:32;;;;;;;;;;;;;;;;;;1045469;28;3764;-54
2023/04/28 01:24:04;;;;;;;;;;;;;;;;;;1046068;28;1615;-48
2023/04/28 01:24:35;;;;;;;;;;;;;;;;;;1046770;28;3655;-48
2023/04/28 01:25:05;;;;;;;;;;;;;;;;;;1045827;28;4045;-45
2023/04/28 01:25:35;;;;;;;;;;;;;;;;;;1047088;28;1717;-50
2023/04/28 01:26:06;;;;;;;;;;;;;;;;;;1045044;28;4092;-50
2023/04/28 01:26:36;;;;;;;;;;;;;;;;;;1044781;28;2969;-51
2023/04/28 01:27:06;;;;;;;;;;;;;;;;;;1046571;28;5024;-47
2023/04/28 01:27:36;;;;;;;;;;;;;;;;;;1042232;28;1775;-46
2023/04/28 01:28:07;;;;;;;;;;;;;;;;;;1042968;28;4055;-45
2023/04/28 01:28:37;;;;;;;;;;;;;;;;;;1042751;28;1700;-47
2023/04/28 01:29:08;;;;;;;;;;;;;;;;;;1042526;28;4464;-54
2023/04/28 01:29:38;;;;;;;;;;;;;;;;;;1040359;28;2959;-45
2023/04/28 01:30:08;;;;;;;;;;;;;;;;;;1041241;28;4166;-48
2023/04/28 01:30:39;;;;;;;;;;;;;;;;;;1042138;28;1901;-49
2023/04/28 01:31:09;;;;;;;;;;;;;;;;;;1042247;28;3800;-47
2023/04/28 01:31:39;;;;;;;;;;;;;;;;;;1039893;28;3226;-47
2023/04/28 01:32:10;;;;;;;;;;;;;;;;;;1040738;28;3803;-49
2023/04/28 01:32:40;;;;;;;;;;;;;;;;;;1041715;28;2849;-52
2023/04/28 01:33:10;;;;;;;;;;;;;;;;;;1041174;28;4044;-49
2023/04/28 01:33:41;;;;;;;;;;;;;;;;;;1042208;28;3047;-44
2023/04/28 01:34:11;;;;;;;;;;;;;;;;;;1042150;28;3970;-45
2023/04/28 01:34:41;;;;;;;;;;;;;;;;;;1043249;28;1433;-47
2023/04/28 01:35:12;;;;;;;;;;;;;;;;;;1039963;28;3808;-44
2023/04/28 01:35:42;;;;;;;;;;;;;;;;;;1042970;28;1778;-47
2023/04/28 01:36:12;;;;;;;;;;;;;;;;;;1042292;28;4154;-46
2023/04/28 01:36:42;;;;;;;;;;;;;;;;;;1043362;28;1646;-48
2023/04/28 01:37:13;;;;;;;;;;;;;;;;;;1039160;28;3799;-51
2023/04/28 01:37:43;;;;;;;;;;;;;;;;;;1043292;28;1559;-46
2023/04/28 01:38:13;;;;;;;;;;;;;;;;;;1042105;28;3974;-46
2023/04/28 01:38:44;;;;;;;;;;;;;;;;;;1043405;28;1623;-47
2023/04/28 01:39:14;;;;;;;;;;;;;;;;;;1042124;28;3926;-47
2023/04/28 01:39:45;;;;;;;;;;;;;;;;;;1043248;28;1886;-49
2023/04/28 01:40:16;;;;;;;;;;;;;;;;;;1042304;28;3950;-44
2023/04/28 01:40:46;;;;;;;;;;;;;;;;;;1043176;28;1680;-49
2023/04/28 01:41:16;;;;;;;;;;;;;;;;;;1042350;28;3884;-47
2023/04/28 01:41:46;;;;;;;;;;;;;;;;;;1043309;28;1744;-46
2023/04/28 01:42:17;;;;;;;;;;;;;;;;;;1040712;28;4119;-48
2023/04/28 01:42:47;;;;;;;;;;;;;;;;;;1042409;28;2006;-50
2023/04/28 01:43:17;;;;;;;;;;;;;;;;;;1043651;28;3954;-45
2023/04/28 01:43:48;;;;;;;;;;;;;;;;;;1042893;28;2674;-49
2023/04/28 01:44:18;;;;;;;;;;;;;;;;;;1042611;28;4003;-47
2023/04/28 01:44:48;;;;;;;;;;;;;;;;;;1041321;28;3612;-50
2023/04/28 01:45:19;;;;;;;;;;;;;;;;;;1041823;28;4189;-47
2023/04/28 01:45:50;;;;;;;;;;;;;;;;;;1043365;28;1918;-46
2023/04/28 01:46:20;;;;;;;;;;;;;;;;;;1043637;28;4138;-44
2023/04/28 01:46:50;;;;;;;;;;;;;;;;;;1042183;28;3138;-45
2023/04/28 01:47:21;;;;;;;;;;;;;;;;;;1041625;28;4021;-46
2023/04/28 01:47:51;;;;;;;;;;;;;;;;;;1042913;28;1839;-51
2023/04/28 01:48:21;;;;;;;;;;;;;;;;;;1043255;28;4048;-47
2023/04/28 01:48:52;;;;;;;;;;;;;;;;;;1041645;28;2588;-51
2023/04/28 01:49:22;;;;;;;;;;;;;;;;;;1042199;28;3749;-45
2023/04/28 01:49:53;;;;;;;;;;;;;;;;;;1043333;28;1797;-47
2023/04/28 01:50:23;;;;;;;;;;;;;;;;;;1043278;28;4031;-46
2023/04/28 01:50:53;;;;;;;;;;;;;;;;;;1043636;28;1796;-50
2023/04/28 01:51:24;;;;;;;;;;;;;;;;;;1043163;28;4037;-48
2023/04/28 01:51:54;;;;;;;;;;;;;;;;;;1042788;28;2139;-44
2023/04/28 01:52:26;;;;;;;;;;;;;;;;;;1041808;28;4419;-48
2023/04/28 01:52:57;;;;;;;;;;;;;;;;;;1042812;28;1895;-47
2023/04/28 01:53:27;;;;;;;;;;;;;;;;;;1043421;28;4026;-45
2023/04/28 01:53:57;;;;;;;;;;;;;;;;;;1044026;28;1801;-47
2023/04/28 01:54:28;;;;;;;;;;;;;;;;;;1042699;28;4117;-47
2023/04/28 01:54:58;;;;;;;;;;;;;;;;;;1043989;28;1434;-48
2023/04/28 01:55:28;;;;;;;;;;;;;;;;;;1042673;28;4052;-44
2023/04/28 01:55:58;;;;;;;;;;;;;;;;;;1041937;28;2936;-48
2023/04/28 01:56:29;;;;;;;;;;;;;;;;;;1040380;28;4037;-46
2023/04/28 01:57:01;;;;;;;;;;;;;;;;;;1042880;28;1877;-46
2023/04/28 01:57:33;;;;;;;;;;;;;;;;;;1040766;28;4142;-49
2023/04/28 01:58:04;;;;;;;;;;;;;;;;;;1041674;28;3412;-47
2023/04/28 01:58:34;;;;;;;;;;;;;;;;;;1042297;28;3937;-50
2023/04/28 01:59:04;;;;;;;;;;;;;;;;;;1043234;28;3949;-46
2023/04/28 01:59:34;;;;;;;;;;;;;;;;;;1043329;28;1850;-47
2023/04/28 02:00:05;;;;;;;;;;;;;;;;;;1043513;28;3775;-48
2023/04/28 02:00:36;;;;;;;;;;;;;;;;;;1043655;28;1637;-48
2023/04/28 02:01:06;;;;;;;;;;;;;;;;;;1042403;28;4235;-44
2023/04/28 02:01:36;;;;;;;;;;;;;;;;;;1043700;28;1755;-45
2023/04/28 02:02:06;;;;;;;;;;;;;;;;;;1041479;28;3879;-49
2023/04/28 02:02:37;;;;;;;;;;;;;;;;;;1041928;28;3035;-48
2023/04/28 02:03:07;;;;;;;;;;;;;;;;;;1042759;28;3936;-45
2023/04/28 02:03:38;;;;;;;;;;;;;;;;;;1043401;28;2428;-49
2023/04/28 02:04:08;;;;;;;;;;;;;;;;;;1042170;28;4048;-47
2023/04/28 02:04:38;;;;;;;;;;;;;;;;;;1043989;28;1625;-45
2023/04/28 02:05:08;;;;;;;;;;;;;;;;;;1042736;28;3963;-46
2023/04/28 02:05:39;;;;;;;;;;;;;;;;;;1043749;28;1667;-47
2023/04/28 02:06:09;;;;;;;;;;;;;;;;;;1040494;28;4058;-44
2023/04/28 02:06:39;;;;;;;;;;;;;;;;;;1043087;28;1693;-48
2023/04/28 02:07:09;;;;;;;;;;;;;;;;;;1040943;28;4310;-47
2023/04/28 02:07:40;;;;;;;;;;;;;;;;;;1039318;28;1645;-45
2023/04/28 02:08:10;;;;;;;;;;;;;;;;;;1038006;28;3879;-47
2023/04/28 02:08:40;;;;;;;;;;;;;;;;;;1038873;28;1710;-49
2023/04/28 02:09:11;;;;;;;;;;;;;;;;;;1038109;28;4074;-46
2023/04/28 02:09:41;;;;;;;;;;;;;;;;;;1043539;28;1718;-53
2023/04/28 02:10:11;;;;;;;;;;;;;;;;;;1041134;28;4059;-51
2023/04/28 02:10:42;;;;;;;;;;;;;;;;;;1040961;28;3084;-47
2023/04/28 02:11:12;;;;;;;;;;;;;;;;;;1042905;28;3880;-47
2023/04/28 02:11:43;;;;;;;;;;;;;;;;;;1041662;28;2873;-50
2023/04/28 02:12:13;;;;;;;;;;;;;;;;;;1041830;28;3773;-47
2023/04/28 02:12:43;;;;;;;;;;;;;;;;;;1043067;28;1883;-47
2023/04/28 02:13:13;;;;;;;;;;;;;;;;;;1041612;28;3912;-44
2023/04/28 02:13:44;;;;;;;;;;;;;;;;;;1043021;28;1798;-48
2023/04/28 02:14:14;;;;;;;;;;;;;;;;;;1042800;28;4029;-44
2023/04/28 02:14:44;;;;;;;;;;;;;;;;;;1043017;28;1885;-45
2023/04/28 02:15:15;;;;;;;;;;;;;;;;;;1042442;28;3872;-47
2023/04/28 02:15:46;;;;;;;;;;;;;;;;;;1042333;28;1889;-46
2023/04/28 02:16:16;;;;;;;;;;;;;;;;;;1043361;28;4111;-46
2023/04/28 02:16:46;;;;;;;;;;;;;;;;;;1041975;28;2219;-47
2023/04/28 02:17:16;;;;;;;;;;;;;;;;;;1041597;28;3871;-50
2023/04/28 02:17:47;;;;;;;;;;;;;;;;;;1042678;28;1910;-46
2023/04/28 02:18:17;;;;;;;;;;;;;;;;;;1043401;28;3788;-50
2023/04/28 02:18:47;;;;;;;;;;;;;;;;;;1042947;28;2200;-48
2023/04/28 02:19:17;;;;;;;;;;;;;;;;;;1041249;28;4043;-47
2023/04/28 02:19:53;;;;;;;;;;;;;;;;;;1043878;28;1592;-48
2023/04/28 02:20:25;;;;;;;;;;;;;;;;;;1051399;28;3863;-50
2023/04/28 02:20:55;;;;;;;;;;;;;;;;;;1047073;28;2943;-47
2023/04/28 02:21:26;;;;;;;;;;;;;;;;;;1049915;28;3779;-44
2023/04/28 02:21:56;;;;;;;;;;;;;;;;;;1051139;28;1581;-48
2023/04/28 02:22:27;;;;;;;;;;;;;;;;;;1042570;28;4128;-47
2023/04/28 02:22:57;;;;;;;;;;;;;;;;;;1041611;28;2722;-45
2023/04/28 02:23:27;;;;;;;;;;;;;;;;;;1041132;28;4326;-47
2023/04/28 02:23:58;;;;;;;;;;;;;;;;;;1043740;28;1693;-49
2023/04/28 02:24:28;;;;;;;;;;;;;;;;;;1041453;28;4015;-49
2023/04/28 02:24:58;;;;;;;;;;;;;;;;;;1043871;28;1694;-45
2023/04/28 02:25:28;;;;;;;;;;;;;;;;;;1042388;28;3781;-48
2023/04/28 02:26:02;;;;;;;;;;;;;;;;;;1043414;28;2779;-49
2023/04/28 02:26:33;;;;;;;;;;;;;;;;;;1042850;28;3983;-46
2023/04/28 02:27:04;;;;;;;;;;;;;;;;;;1042815;28;2588;-45
2023/04/28 02:27:35;;;;;;;;;;;;;;;;;;1046715;28;3757;-47
2023/04/28 02:28:06;;;;;;;;;;;;;;;;;;1047349;28;3787;-52
2023/04/28 02:28:36;;;;;;;;;;;;;;;;;;1042870;28;1782;-50
2023/04/28 02:29:06;;;;;;;;;;;;;;;;;;1042041;28;4419;-46
2023/04/28 02:29:36;;;;;;;;;;;;;;;;;;1041824;28;2886;-48
2023/04/28 02:30:07;;;;;;;;;;;;;;;;;;1043327;28;3844;-48
2023/04/28 02:30:37;;;;;;;;;;;;;;;;;;1042704;28;2700;-46
2023/04/28 02:31:08;;;;;;;;;;;;;;;;;;1041866;28;4051;-48
2023/04/28 02:31:39;;;;;;;;;;;;;;;;;;1042757;28;1872;-44
2023/04/28 02:32:09;;;;;;;;;;;;;;;;;;1042173;28;4080;-48
2023/04/28 02:32:39;;;;;;;;;;;;;;;;;;1041111;28;2823;-47
2023/04/28 02:33:10;;;;;;;;;;;;;;;;;;1043309;28;4141;-45
2023/04/28 02:33:41;;;;;;;;;;;;;;;;;;1043719;28;1725;-48
2023/04/28 02:34:12;;;;;;;;;;;;;;;;;;1042353;28;4021;-45
2023/04/28 02:34:43;;;;;;;;;;;;;;;;;;1043357;28;1684;-50
2023/04/28 02:35:13;;;;;;;;;;;;;;;;;;1043273;28;4039;-46
2023/04/28 02:35:44;;;;;;;;;;;;;;;;;;1043721;28;1696;-44
2023/04/28 02:36:14;;;;;;;;;;;;;;;;;;1042526;28;4086;-50
2023/04/28 02:36:44;;;;;;;;;;;;;;;;;;1043627;28;1512;-49
2023/04/28 02:37:14;;;;;;;;;;;;;;;;;;1042180;28;3963;-46
2023/04/28 02:37:45;;;;;;;;;;;;;;;;;;1043281;28;1703;-45
2023/04/28 02:38:15;;;;;;;;;;;;;;;;;;1041752;28;3899;-45
2023/04/28 02:38:46;;;;;;;;;;;;;;;;;;1043307;28;3101;-49
2023/04/28 02:39:16;;;;;;;;;;;;;;;;;;1040433;28;3962;-44
2023/04/28 02:39:46;;;;;;;;;;;;;;;;;;1046343;28;3111;-47
2023/04/28 02:40:17;;;;;;;;;;;;;;;;;;1042889;28;4050;-48
2023/04/28 02:40:47;;;;;;;;;;;;;;;;;;1050408;28;1837;-46
2023/04/28 02:41:17;;;;;;;;;;;;;;;;;;1048080;28;3986;-49
2023/04/28 02:41:48;;;;;;;;;;;;;;;;;;1042600;28;1588;-49
2023/04/28 02:42:18;;;;;;;;;;;;;;;;;;1042370;28;3949;-46
2023/04/28 02:42:48;;;;;;;;;;;;;;;;;;1043740;28;1706;-49
2023/04/28 02:43:18;;;;;;;;;;;;;;;;;;1040546;28;3894;-45
2023/04/28 02:43:49;;;;;;;;;;;;;;;;;;1042144;28;2863;-44
2023/04/28 02:44:19;;;;;;;;;;;;;;;;;;1042273;28;3989;-47
2023/04/28 02:44:49;;;;;;;;;;;;;;;;;;1043327;28;1716;-46
2023/04/28 02:45:20;;;;;;;;;;;;;;;;;;1045367;28;3854;-46
2023/04/28 02:45:50;;;;;;;;;;;;;;;;;;1043596;28;1707;-49
2023/04/28 02:46:20;;;;;;;;;;;;;;;;;;1045899;28;4074;-50
2023/04/28 02:46:51;;;;;;;;;;;;;;;;;;1046779;28;1920;-44
2023/04/28 02:47:21;;;;;;;;;;;;;;;;;;1040781;28;4051;-44
2023/04/28 02:47:51;;;;;;;;;;;;;;;;;;1042890;28;1734;-45
2023/04/28 02:48:22;;;;;;;;;;;;;;;;;;1043016;28;3781;-46
2023/04/28 02:48:52;;;;;;;;;;;;;;;;;;1043269;28;1916;-47
2023/04/28 02:49:23;;;;;;;;;;;;;;;;;;1042759;28;3969;-47
2023/04/28 02:49:53;;;;;;;;;;;;;;;;;;1043294;28;1817;-48
2023/04/28 02:50:23;;;;;;;;;;;;;;;;;;1042969;28;4034;-45
2023/04/28 02:50:53;;;;;;;;;;;;;;;;;;1042977;28;1725;-46
2023/04/28 02:51:24;;;;;;;;;;;;;;;;;;1043169;28;3934;-47
2023/04/28 02:51:54;;;;;;;;;;;;;;;;;;1042932;28;1852;-49
2023/04/28 02:52:24;;;;;;;;;;;;;;;;;;1043241;28;3726;-50
2023/04/28 02:52:55;;;;;;;;;;;;;;;;;;1043228;28;1747;-48
2023/04/28 02:53:25;;;;;;;;;;;;;;;;;;1043097;28;4062;-45
2023/04/28 02:53:55;;;;;;;;;;;;;;;;;;1043124;28;1928;-49
2023/04/28 02:54:26;;;;;;;;;;;;;;;;;;1042817;28;4077;-48
2023/04/28 02:54:56;;;;;;;;;;;;;;;;;;1040849;28;2902;-47
2023/04/28 02:55:27;;;;;;;;;;;;;;;;;;1041617;28;3979;-49
2023/04/28 02:55:58;;;;;;;;;;;;;;;;;;1042987;28;1733;-45
2023/04/28 02:56:31;;;;;;;;;;;;;;;;;;1043039;28;3768;-49
2023/04/28 02:57:03;;;;;;;;;;;;;;;;;;1040996;28;3049;-50
2023/04/28 02:57:33;;;;;;;;;;;;;;;;;;1040639;28;3951;-46
2023/04/28 02:58:04;;;;;;;;;;;;;;;;;;1041870;28;2379;-46
2023/04/28 02:58:34;;;;;;;;;;;;;;;;;;1043284;28;4549;-48
2023/04/28 02:59:04;;;;;;;;;;;;;;;;;;1042571;28;3908;-45
2023/04/28 02:59:35;;;;;;;;;;;;;;;;;;1042656;28;2966;-49
2023/04/28 03:00:05;;;;;;;;;;;;;;;;;;1041296;28;3791;-47
2023/04/28 03:00:36;;;;;;;;;;;;;;;;;;1043606;28;1634;-46
2023/04/28 03:01:06;;;;;;;;;;;;;;;;;;1043347;28;3986;-46
2023/04/28 03:01:36;;;;;;;;;;;;;;;;;;1043020;28;1897;-47
2023/04/28 03:02:08;;;;;;;;;;;;;;;;;;1042989;28;3935;-49
2023/04/28 03:02:38;;;;;;;;;;;;;;;;;;1041872;28;2875;-48
2023/04/28 03:03:08;;;;;;;;;;;;;;;;;;1041243;28;3801;-48
2023/04/28 03:03:38;;;;;;;;;;;;;;;;;;1043222;28;1804;-44
2023/04/28 03:04:09;;;;;;;;;;;;;;;;;;1042414;28;4436;-48
2023/04/28 03:04:39;;;;;;;;;;;;;;;;;;1042956;28;1941;-52
2023/04/28 03:05:10;;;;;;;;;;;;;;;;;;1042319;28;4029;-47
2023/04/28 03:05:40;;;;;;;;;;;;;;;;;;1041585;28;2917;-47
2023/04/28 03:06:10;;;;;;;;;;;;;;;;;;1042666;28;3926;-48
2023/04/28 03:06:41;;;;;;;;;;;;;;;;;;1041605;28;2926;-45
2023/04/28 03:07:11;;;;;;;;;;;;;;;;;;1042465;28;3790;-47
2023/04/28 03:07:41;;;;;;;;;;;;;;;;;;1042942;28;1996;-46
2023/04/28 03:08:12;;;;;;;;;;;;;;;;;;1041872;28;4028;-47
2023/04/28 03:08:42;;;;;;;;;;;;;;;;;;1040285;28;2972;-44
2023/04/28 03:09:13;;;;;;;;;;;;;;;;;;1043241;28;4360;-48
2023/04/28 03:09:45;;;;;;;;;;;;;;;;;;1042152;28;1874;-49
2023/04/28 03:10:15;;;;;;;;;;;;;;;;;;1039575;28;4066;-45
2023/04/28 03:10:45;;;;;;;;;;;;;;;;;;1042903;28;1669;-48
2023/04/28 03:11:16;;;;;;;;;;;;;;;;;;1042338;28;3815;-48
2023/04/28 03:11:46;;;;;;;;;;;;;;;;;;1043489;28;1717;-48
2023/04/28 03:12:16;;;;;;;;;;;;;;;;;;1041815;28;3808;-44
2023/04/28 03:12:47;;;;;;;;;;;;;;;;;;1041915;28;3128;-46
2023/04/28 03:13:17;;;;;;;;;;;;;;;;;;1042472;28;3914;-46
2023/04/28 03:13:47;;;;;;;;;;;;;;;;;;1043075;28;1841;-50
2023/04/28 03:14:17;;;;;;;;;;;;;;;;;;1041434;28;4047;-48
2023/04/28 03:14:48;;;;;;;;;;;;;;;;;;1043450;28;1626;-47
2023/04/28 03:15:18;;;;;;;;;;;;;;;;;;1041578;28;4216;-44
2023/04/28 03:15:48;;;;;;;;;;;;;;;;;;1042857;28;3161;-47
2023/04/28 03:16:19;;;;;;;;;;;;;;;;;;1040774;28;4212;-48
2023/04/28 03:16:49;;;;;;;;;;;;;;;;;;1042339;28;3072;-46
2023/04/28 03:17:19;;;;;;;;;;;;;;;;;;1042518;28;4052;-48
2023/04/28 03:17:50;;;;;;;;;;;;;;;;;;1042435;28;2721;-46
2023/04/28 03:18:21;;;;;;;;;;;;;;;;;;1040994;28;3848;-46
2023/04/28 03:18:51;;;;;;;;;;;;;;;;;;1043061;28;1813;-46
2023/04/28 03:19:21;;;;;;;;;;;;;;;;;;1042058;28;3823;-48
2023/04/28 03:19:52;;;;;;;;;;;;;;;;;;1043704;28;1712;-48
2023/04/28 03:20:22;;;;;;;;;;;;;;;;;;1041408;28;4034;-48
2023/04/28 03:20:52;;;;;;;;;;;;;;;;;;1043805;28;1746;-51
2023/04/28 03:21:23;;;;;;;;;;;;;;;;;;1042970;28;4219;-45
2023/04/28 03:21:53;;;;;;;;;;;;;;;;;;1042934;28;1812;-50
2023/04/28 03:22:23;;;;;;;;;;;;;;;;;;1043198;28;4016;-47
2023/04/28 03:22:54;;;;;;;;;;;;;;;;;;1042913;28;1643;-50
2023/04/28 03:23:24;;;;;;;;;;;;;;;;;;1041869;28;3755;-47
2023/04/28 03:23:54;;;;;;;;;;;;;;;;;;1041070;28;3070;-46
2023/04/28 03:24:25;;;;;;;;;;;;;;;;;;1042804;28;4014;-45
2023/04/28 03:24:55;;;;;;;;;;;;;;;;;;1043015;28;1944;-46
2023/04/28 03:25:25;;;;;;;;;;;;;;;;;;1043162;28;4109;-46
2023/04/28 03:25:55;;;;;;;;;;;;;;;;;;1042671;28;1682;-48
2023/04/28 03:26:26;;;;;;;;;;;;;;;;;;1043233;28;3722;-47
2023/04/28 03:26:56;;;;;;;;;;;;;;;;;;1041416;28;2974;-46
2023/04/28 03:27:26;;;;;;;;;;;;;;;;;;1041775;28;4050;-46
2023/04/28 03:27:57;;;;;;;;;;;;;;;;;;1042707;28;1747;-51
2023/04/28 03:28:28;;;;;;;;;;;;;;;;;;1041984;28;4223;-45
2023/04/28 03:28:58;;;;;;;;;;;;;;;;;;1042790;28;1890;-47
2023/04/28 03:29:28;;;;;;;;;;;;;;;;;;1043160;28;3943;-47
2023/04/28 03:29:59;;;;;;;;;;;;;;;;;;1042773;28;1921;-47
2023/04/28 03:30:29;;;;;;;;;;;;;;;;;;1042168;28;3953;-45
2023/04/28 03:30:59;;;;;;;;;;;;;;;;;;1041648;28;3208;-45
2023/04/28 03:31:30;;;;;;;;;;;;;;;;;;1041162;28;3972;-48
2023/04/28 03:32:00;;;;;;;;;;;;;;;;;;1043387;28;1708;-48
2023/04/28 03:32:30;;;;;;;;;;;;;;;;;;1042425;28;4005;-46